Time;durP1;ratioP1;P1;durP2;ratioP2;P2;SDS_P1;SDS_P2;PMS_P1;PMS_P2;Temp;Humidity;BMP_temperature;BMP_pressure;BME280_temperature;BME280_humidity;BME280_pressure;Samples;Min_cycle;Max_cycle;Signal;HPM_P1;HPM_P2
2023/12/12 00:02:04;;;;;;;9.20;6.88;;;;;;;;;;5025095;28;20475;-65
2023/12/12 00:04:29;;;;;;;9.32;6.85;;;;;;;;;;5006057;28;20080;-65
2023/12/12 00:06:54;;;;;;;9.85;7.00;;;;;;;;;;5024770;28;20034;-65
2023/12/12 00:09:20;;;;;;;9.45;6.80;;;;;;;;;;5006989;28;20080;-65
2023/12/12 00:11:45;;;;;;;10.23;6.97;;;;;;;;;;5007691;28;20049;-65
2023/12/12 00:14:10;;;;;;;7.80;6.15;;;;;;;;;;5022602;28;20049;-65
2023/12/12 00:16:35;;;;;;;9.25;7.30;;;;;;;;;;5005377;28;20052;-65
2023/12/12 00:19:01;;;;;;;9.82;7.28;;;;;;;;;;5005577;28;20030;-65
2023/12/12 00:21:26;;;;;;;8.73;6.72;;;;;;;;;;5024864;28;20523;-65
2023/12/12 00:23:52;;;;;;;10.63;6.80;;;;;;;;;;5024298;28;20049;-65
2023/12/12 00:26:17;;;;;;;9.10;6.65;;;;;;;;;;5024157;28;20106;-65
2023/12/12 00:28:42;;;;;;;9.90;6.97;;;;;;;;;;5024306;28;20455;-65
2023/12/12 00:31:08;;;;;;;10.18;7.30;;;;;;;;;;5022285;28;20571;-65
2023/12/12 00:33:33;;;;;;;9.68;7.15;;;;;;;;;;5005168;28;20040;-65
2023/12/12 00:35:59;;;;;;;9.52;7.22;;;;;;;;;;5024347;28;20036;-65
2023/12/12 00:38:28;;;;;;;9.30;6.75;;;;;;;;;;5024471;28;20038;-65
2023/12/12 00:40:54;;;;;;;9.47;7.37;;;;;;;;;;5010996;28;20046;-65
2023/12/12 00:43:19;;;;;;;9.02;7.28;;;;;;;;;;5027963;28;20030;-65
2023/12/12 00:45:45;;;;;;;10.98;7.07;;;;;;;;;;5028658;28;20045;-65
2023/12/12 00:48:10;;;;;;;9.13;7.13;;;;;;;;;;5028934;28;20037;-65
2023/12/12 00:50:35;;;;;;;10.82;8.23;;;;;;;;;;5010805;28;20050;-64
2023/12/12 00:53:01;;;;;;;9.55;7.18;;;;;;;;;;5025748;28;20497;-66
2023/12/12 00:55:26;;;;;;;9.55;7.72;;;;;;;;;;5028626;28;20065;-65
2023/12/12 00:57:51;;;;;;;9.70;7.40;;;;;;;;;;5018256;28;20047;-65
2023/12/12 01:00:17;;;;;;;9.80;7.03;;;;;;;;;;5027852;28;20492;-65
2023/12/12 01:02:42;;;;;;;9.80;7.63;;;;;;;;;;5028081;28;20067;-65
2023/12/12 01:05:08;;;;;;;9.55;7.30;;;;;;;;;;5027140;28;20045;-65
2023/12/12 01:07:33;;;;;;;9.55;7.22;;;;;;;;;;5009491;28;20510;-65
2023/12/12 01:09:58;;;;;;;10.63;7.53;;;;;;;;;;5027018;28;20053;-65
2023/12/12 01:12:25;;;;;;;11.60;7.70;;;;;;;;;;5025308;28;20434;-65
2023/12/12 01:14:50;;;;;;;9.32;7.07;;;;;;;;;;5026308;28;20045;-65
2023/12/12 01:17:15;;;;;;;10.48;7.57;;;;;;;;;;5028122;28;20033;-65
2023/12/12 01:19:41;;;;;;;9.32;7.20;;;;;;;;;;5026963;28;20045;-65
2023/12/12 01:22:06;;;;;;;10.00;7.53;;;;;;;;;;5010269;28;20040;-65
2023/12/12 01:24:31;;;;;;;10.55;8.07;;;;;;;;;;5009751;28;20475;-65
2023/12/12 01:26:57;;;;;;;11.40;8.27;;;;;;;;;;5009237;28;20084;-65
2023/12/12 01:29:22;;;;;;;11.13;7.90;;;;;;;;;;5025190;28;20079;-65
2023/12/12 01:31:47;;;;;;;10.38;8.20;;;;;;;;;;5027326;28;20593;-65
2023/12/12 01:34:13;;;;;;;10.25;7.55;;;;;;;;;;5040590;28;20025;-65
2023/12/12 01:36:38;;;;;;;10.40;7.70;;;;;;;;;;5007923;28;20093;-65
2023/12/12 01:39:04;;;;;;;10.85;7.95;;;;;;;;;;5024595;28;20038;-65
2023/12/12 01:41:29;;;;;;;10.85;7.70;;;;;;;;;;5005575;28;20128;-65
2023/12/12 01:43:55;;;;;;;10.38;7.78;;;;;;;;;;5028218;28;20152;-65
2023/12/12 01:46:20;;;;;;;10.88;7.82;;;;;;;;;;5025706;28;20041;-65
2023/12/12 01:48:46;;;;;;;9.82;7.35;;;;;;;;;;5023762;28;20025;-65
2023/12/12 01:51:11;;;;;;;9.55;7.70;;;;;;;;;;5027898;28;20159;-65
2023/12/12 01:53:44;;;;;;;9.77;7.22;;;;;;;;;;5016812;28;20139;-65
2023/12/12 01:56:10;;;;;;;10.43;8.02;;;;;;;;;;5011794;28;20479;-65
2023/12/12 01:58:35;;;;;;;11.20;8.10;;;;;;;;;;5030076;28;20162;-65
2023/12/12 02:01:01;;;;;;;11.50;8.48;;;;;;;;;;5025480;28;20129;-65
2023/12/12 02:03:26;;;;;;;10.38;8.00;;;;;;;;;;5025237;28;20030;-65
2023/12/12 02:05:52;;;;;;;10.93;8.25;;;;;;;;;;5024946;28;20044;-65
2023/12/12 02:08:18;;;;;;;10.15;7.72;;;;;;;;;;5011135;28;20043;-65
2023/12/12 02:10:43;;;;;;;9.13;7.22;;;;;;;;;;5023951;28;20435;-65
2023/12/12 02:13:09;;;;;;;10.90;7.57;;;;;;;;;;5025308;28;20056;-65
2023/12/12 02:15:34;;;;;;;11.20;7.88;;;;;;;;;;5006869;28;20037;-65
2023/12/12 02:18:00;;;;;;;10.75;7.57;;;;;;;;;;5007142;28;20143;-65
2023/12/12 02:20:25;;;;;;;10.95;7.72;;;;;;;;;;5030156;28;20052;-65
2023/12/12 02:22:50;;;;;;;10.80;8.30;;;;;;;;;;5030528;28;20120;-65
2023/12/12 02:25:16;;;;;;;10.70;8.02;;;;;;;;;;5023480;28;20044;-65
2023/12/12 02:27:41;;;;;;;9.80;7.63;;;;;;;;;;5004932;28;20132;-66
2023/12/12 02:30:07;;;;;;;9.02;7.45;;;;;;;;;;5007700;28;20434;-66
2023/12/12 02:32:32;;;;;;;10.30;8.00;;;;;;;;;;5023791;28;20037;-65
2023/12/12 02:34:57;;;;;;;10.38;7.78;;;;;;;;;;5033147;28;20423;-65
2023/12/12 02:37:23;;;;;;;10.98;8.02;;;;;;;;;;5024410;28;20033;-65
2023/12/12 02:39:48;;;;;;;10.80;8.60;;;;;;;;;;5029571;28;20037;-65
2023/12/12 02:42:13;;;;;;;11.48;8.45;;;;;;;;;;5028754;28;20029;-65
2023/12/12 02:44:38;;;;;;;13.68;8.15;;;;;;;;;;5022547;28;20041;-64
2023/12/12 02:47:04;;;;;;;10.45;8.40;;;;;;;;;;5031421;28;20060;-65
2023/12/12 02:49:29;;;;;;;9.68;7.70;;;;;;;;;;5006413;28;20438;-65
2023/12/12 02:51:54;;;;;;;10.45;7.82;;;;;;;;;;5032622;28;20044;-65
2023/12/12 02:54:20;;;;;;;11.93;8.52;;;;;;;;;;5034683;28;20042;-65
2023/12/12 02:56:45;;;;;;;10.85;8.00;;;;;;;;;;5033538;28;20500;-65
2023/12/12 02:59:10;;;;;;;10.57;8.32;;;;;;;;;;4995495;28;20417;-65
2023/12/12 03:01:35;;;;;;;11.48;8.68;;;;;;;;;;5022936;28;20491;-65
2023/12/12 03:04:01;;;;;;;10.50;7.78;;;;;;;;;;5023997;28;20507;-65
2023/12/12 03:06:26;;;;;;;10.57;8.07;;;;;;;;;;5029492;28;20041;-65
2023/12/12 03:08:51;;;;;;;11.85;9.05;;;;;;;;;;5039646;28;20115;-65
2023/12/12 03:11:17;;;;;;;9.65;7.82;;;;;;;;;;5037724;28;20558;-65
2023/12/12 03:13:42;;;;;;;10.68;8.10;;;;;;;;;;5025432;28;20037;-65
2023/12/12 03:16:07;;;;;;;10.15;7.88;;;;;;;;;;5031974;28;20038;-66
2023/12/12 03:18:32;;;;;;;10.77;8.35;;;;;;;;;;5026132;28;20142;-65
2023/12/12 03:21:00;;;;;;;10.60;8.20;;;;;;;;;;5024078;28;20049;-64
2023/12/12 03:23:25;;;;;;;11.05;8.30;;;;;;;;;;5023614;28;20044;-65
2023/12/12 03:25:50;;;;;;;10.10;7.90;;;;;;;;;;5022749;28;20430;-65
2023/12/12 03:28:15;;;;;;;10.43;8.27;;;;;;;;;;5004974;28;20024;-65
2023/12/12 03:30:41;;;;;;;10.38;7.63;;;;;;;;;;5024569;28;20072;-65
2023/12/12 03:33:06;;;;;;;9.70;7.38;;;;;;;;;;5022673;28;20417;-65
2023/12/12 03:35:31;;;;;;;10.73;7.95;;;;;;;;;;5024368;28;20512;-65
2023/12/12 03:37:57;;;;;;;10.98;7.95;;;;;;;;;;5022526;28;20483;-65
2023/12/12 03:40:22;;;;;;;11.00;8.13;;;;;;;;;;4990252;28;20034;-65
2023/12/12 03:42:47;;;;;;;10.05;7.40;;;;;;;;;;4995904;28;20018;-65
2023/12/12 03:45:13;;;;;;;10.98;8.30;;;;;;;;;;5023770;28;20507;-65
2023/12/12 03:47:38;;;;;;;11.25;8.48;;;;;;;;;;5017001;28;20052;-60
2023/12/12 03:50:03;;;;;;;10.35;8.35;;;;;;;;;;5015050;28;21653;-59
2023/12/12 03:52:29;;;;;;;12.07;8.90;;;;;;;;;;5011820;28;20045;-59
2023/12/12 03:54:54;;;;;;;12.27;8.45;;;;;;;;;;5014385;28;20029;-59
2023/12/12 03:57:19;;;;;;;12.38;8.68;;;;;;;;;;5018656;28;20089;-59
2023/12/12 03:59:44;;;;;;;10.80;8.30;;;;;;;;;;5016324;28;20014;-59
2023/12/12 04:02:10;;;;;;;12.27;8.70;;;;;;;;;;5015333;28;20036;-59
2023/12/12 04:04:35;;;;;;;11.35;8.23;;;;;;;;;;5018366;28;20033;-58
2023/12/12 04:07:00;;;;;;;12.80;8.40;;;;;;;;;;5016139;28;20029;-60
2023/12/12 04:09:26;;;;;;;11.02;8.07;;;;;;;;;;5018058;28;20037;-59
2023/12/12 04:11:51;;;;;;;10.57;8.25;;;;;;;;;;4998718;28;20384;-60
2023/12/12 04:14:16;;;;;;;10.88;8.27;;;;;;;;;;5018892;28;20017;-59
2023/12/12 04:16:41;;;;;;;11.65;8.40;;;;;;;;;;5021050;28;20025;-59
2023/12/12 04:19:07;;;;;;;12.35;8.65;;;;;;;;;;5021351;28;20032;-59
2023/12/12 04:21:32;;;;;;;10.43;7.97;;;;;;;;;;5019983;28;20018;-59
2023/12/12 04:23:57;;;;;;;11.48;8.07;;;;;;;;;;5021566;28;20083;-59
2023/12/12 04:26:23;;;;;;;11.60;8.60;;;;;;;;;;5022207;28;20332;-59
2023/12/12 04:28:48;;;;;;;11.18;8.23;;;;;;;;;;5018225;28;20064;-59
2023/12/12 04:31:14;;;;;;;10.60;7.88;;;;;;;;;;5019165;28;20469;-59
2023/12/12 04:33:40;;;;;;;10.07;7.95;;;;;;;;;;5019844;28;20025;-59
2023/12/12 04:36:06;;;;;;;11.38;8.23;;;;;;;;;;5001008;28;20028;-58
2023/12/12 04:38:31;;;;;;;10.75;8.48;;;;;;;;;;5002019;28;20029;-59
2023/12/12 04:40:56;;;;;;;10.38;7.78;;;;;;;;;;5002034;28;20018;-59
2023/12/12 04:43:22;;;;;;;10.18;8.10;;;;;;;;;;5020530;28;20030;-59
2023/12/12 04:45:47;;;;;;;10.60;8.45;;;;;;;;;;5020961;28;20441;-60
2023/12/12 04:48:12;;;;;;;9.38;8.00;;;;;;;;;;5019795;28;20476;-59
2023/12/12 04:50:38;;;;;;;11.52;8.52;;;;;;;;;;5021289;28;20056;-61
2023/12/12 04:53:03;;;;;;;10.20;7.63;;;;;;;;;;5001473;28;20075;-60
2023/12/12 04:55:28;;;;;;;10.68;8.27;;;;;;;;;;5020556;28;20203;-60
2023/12/12 04:57:54;;;;;;;9.82;7.78;;;;;;;;;;5021425;28;20049;-60
2023/12/12 05:00:19;;;;;;;10.93;8.23;;;;;;;;;;5002463;28;20081;-60
2023/12/12 05:02:45;;;;;;;10.25;7.97;;;;;;;;;;5018218;28;20104;-60
2023/12/12 05:05:11;;;;;;;11.13;8.13;;;;;;;;;;5016850;28;20031;-60
2023/12/12 05:07:36;;;;;;;10.35;7.93;;;;;;;;;;5020072;28;20025;-60
2023/12/12 05:10:01;;;;;;;11.07;7.90;;;;;;;;;;5021514;28;20496;-59
2023/12/12 05:12:26;;;;;;;9.32;8.00;;;;;;;;;;5005704;28;20033;-59
2023/12/12 05:14:52;;;;;;;11.65;8.48;;;;;;;;;;5021742;28;20181;-59
2023/12/12 05:17:17;;;;;;;10.85;8.43;;;;;;;;;;5020921;28;20124;-59
2023/12/12 05:19:42;;;;;;;11.27;8.40;;;;;;;;;;5017189;28;20052;-60
2023/12/12 05:22:08;;;;;;;10.70;8.23;;;;;;;;;;4999258;28;20362;-60
2023/12/12 05:24:33;;;;;;;10.18;7.90;;;;;;;;;;5018755;28;20211;-60
2023/12/12 05:26:58;;;;;;;12.82;8.57;;;;;;;;;;5018465;28;20588;-60
2023/12/12 05:29:24;;;;;;;10.48;8.23;;;;;;;;;;5017631;28;20132;-61
2023/12/12 05:31:49;;;;;;;11.27;8.38;;;;;;;;;;5021115;28;20041;-59
2023/12/12 05:34:14;;;;;;;10.77;7.80;;;;;;;;;;5020115;28;20037;-60
2023/12/12 05:36:39;;;;;;;10.93;8.30;;;;;;;;;;5021177;28;20499;-60
2023/12/12 05:39:05;;;;;;;10.80;8.55;;;;;;;;;;5020671;28;20140;-60
2023/12/12 05:41:30;;;;;;;10.60;7.75;;;;;;;;;;5020115;28;20038;-60
2023/12/12 05:43:57;;;;;;;11.50;8.25;;;;;;;;;;5019586;28;20038;-60
2023/12/12 05:46:23;;;;;;;11.63;8.65;;;;;;;;;;5018037;28;20041;-60
2023/12/12 05:48:48;;;;;;;10.82;7.90;;;;;;;;;;5019497;28;20042;-60
2023/12/12 05:51:13;;;;;;;10.30;7.50;;;;;;;;;;5022110;28;20061;-59
2023/12/12 05:53:38;;;;;;;9.68;7.82;;;;;;;;;;5020726;28;20566;-60
2023/12/12 05:56:04;;;;;;;11.00;7.90;;;;;;;;;;5018959;28;20076;-60
2023/12/12 05:58:29;;;;;;;11.38;8.70;;;;;;;;;;5017418;28;20087;-60
2023/12/12 06:00:55;;;;;;;10.30;7.80;;;;;;;;;;5001435;28;20077;-60
2023/12/12 06:03:20;;;;;;;10.93;8.40;;;;;;;;;;5019242;28;20033;-60
2023/12/12 06:05:45;;;;;;;9.68;7.35;;;;;;;;;;4999742;28;20040;-59
2023/12/12 06:08:11;;;;;;;9.57;7.20;;;;;;;;;;5021098;28;20037;-60
2023/12/12 06:10:37;;;;;;;10.45;8.05;;;;;;;;;;5017248;28;20060;-60
2023/12/12 06:13:02;;;;;;;10.20;7.53;;;;;;;;;;5003152;28;20175;-59
2023/12/12 06:15:28;;;;;;;10.32;7.90;;;;;;;;;;5019932;28;20113;-59
2023/12/12 06:17:53;;;;;;;9.63;7.45;;;;;;;;;;5019721;28;20080;-60
2023/12/12 06:20:19;;;;;;;10.60;7.57;;;;;;;;;;5016546;28;20037;-60
2023/12/12 06:22:45;;;;;;;12.98;7.43;;;;;;;;;;5019511;28;20033;-60
2023/12/12 06:25:10;;;;;;;10.30;7.30;;;;;;;;;;4999681;28;20456;-61
2023/12/12 06:27:35;;;;;;;11.40;7.88;;;;;;;;;;5020673;28;20033;-60
2023/12/12 06:30:01;;;;;;;10.52;7.30;;;;;;;;;;5020177;28;20057;-61
2023/12/12 06:32:26;;;;;;;9.68;7.20;;;;;;;;;;5020073;28;20393;-60
2023/12/12 06:34:51;;;;;;;11.23;7.78;;;;;;;;;;4999255;28;20148;-60
2023/12/12 06:37:17;;;;;;;11.10;7.10;;;;;;;;;;5017697;28;20498;-59
2023/12/12 06:39:42;;;;;;;11.15;7.28;;;;;;;;;;4994428;28;20590;-60
2023/12/12 06:42:07;;;;;;;10.73;6.93;;;;;;;;;;5014779;28;20125;-60
2023/12/12 06:44:33;;;;;;;9.05;7.00;;;;;;;;;;5015163;28;20045;-60
2023/12/12 06:46:58;;;;;;;8.40;7.35;;;;;;;;;;4998534;28;20044;-60
2023/12/12 06:49:23;;;;;;;9.18;7.30;;;;;;;;;;5016516;28;20044;-60
2023/12/12 06:51:49;;;;;;;8.90;7.28;;;;;;;;;;5017689;28;20612;-60
2023/12/12 06:54:15;;;;;;;10.05;7.35;;;;;;;;;;5016888;28;20037;-60
2023/12/12 06:56:41;;;;;;;9.25;7.03;;;;;;;;;;5017699;28;20071;-60
2023/12/12 06:59:07;;;;;;;8.88;6.72;;;;;;;;;;5018043;28;20052;-60
2023/12/12 07:01:32;;;;;;;9.80;7.53;;;;;;;;;;5015776;28;20025;-59
2023/12/12 07:03:57;;;;;;;10.20;7.40;;;;;;;;;;5016875;28;20033;-60
2023/12/12 07:06:23;;;;;;;7.68;6.55;;;;;;;;;;5017348;28;20105;-60
2023/12/12 07:08:48;;;;;;;9.00;7.13;;;;;;;;;;5016356;28;20103;-61
2023/12/12 07:11:14;;;;;;;8.48;6.57;;;;;;;;;;5016517;28;20057;-60
2023/12/12 07:13:40;;;;;;;8.73;6.80;;;;;;;;;;4999275;28;20041;-60
2023/12/12 07:16:05;;;;;;;10.00;7.07;;;;;;;;;;5016984;28;20034;-60
2023/12/12 07:18:31;;;;;;;8.02;6.47;;;;;;;;;;5016999;28;20033;-60
2023/12/12 07:20:59;;;;;;;8.32;6.50;;;;;;;;;;5017198;28;21912;-60
2023/12/12 07:23:24;;;;;;;8.70;6.80;;;;;;;;;;5017961;28;20706;-60
2023/12/12 07:25:49;;;;;;;10.15;7.28;;;;;;;;;;5017794;28;20124;-60
2023/12/12 07:28:15;;;;;;;8.00;6.10;;;;;;;;;;5018410;28;20045;-61
2023/12/12 07:30:40;;;;;;;8.45;6.38;;;;;;;;;;5011927;28;20065;-60
2023/12/12 07:33:05;;;;;;;8.90;6.68;;;;;;;;;;5015511;28;20065;-60
2023/12/12 07:35:30;;;;;;;9.32;6.65;;;;;;;;;;5016873;28;20534;-61
2023/12/12 07:37:56;;;;;;;8.00;6.13;;;;;;;;;;5017246;28;20068;-61
2023/12/12 07:40:21;;;;;;;9.13;6.10;;;;;;;;;;5016833;28;20061;-60
2023/12/12 07:42:46;;;;;;;7.35;6.10;;;;;;;;;;5017975;28;20114;-61
2023/12/12 07:45:12;;;;;;;7.82;6.07;;;;;;;;;;5014353;28;20806;-60
2023/12/12 07:47:37;;;;;;;7.97;5.85;;;;;;;;;;5015717;28;20107;-61
2023/12/12 07:50:05;;;;;;;8.70;6.40;;;;;;;;;;5015242;28;20049;-61
2023/12/12 07:52:31;;;;;;;8.77;5.97;;;;;;;;;;5013401;28;20068;-60
2023/12/12 07:54:57;;;;;;;8.65;5.80;;;;;;;;;;5008120;28;20112;-60
2023/12/12 07:57:22;;;;;;;7.40;5.78;;;;;;;;;;5017359;28;20034;-61
2023/12/12 07:59:47;;;;;;;7.55;5.90;;;;;;;;;;5018068;28;20133;-59
2023/12/12 08:02:12;;;;;;;7.45;5.60;;;;;;;;;;5015765;28;20041;-60
2023/12/12 08:04:38;;;;;;;7.22;5.70;;;;;;;;;;5017449;28;20099;-59
2023/12/12 08:07:03;;;;;;;7.95;5.50;;;;;;;;;;5016923;28;20048;-60
2023/12/12 08:09:29;;;;;;;7.32;5.80;;;;;;;;;;5016796;28;20116;-60
2023/12/12 08:11:54;;;;;;;8.27;6.38;;;;;;;;;;5017374;28;20466;-60
2023/12/12 08:14:20;;;;;;;8.02;6.07;;;;;;;;;;5018660;28;20108;-60
2023/12/12 08:16:45;;;;;;;7.05;5.60;;;;;;;;;;5016374;28;20125;-59
2023/12/12 08:19:10;;;;;;;8.25;5.93;;;;;;;;;;5016252;28;20078;-60
2023/12/12 08:21:36;;;;;;;9.55;5.80;;;;;;;;;;5016811;28;20159;-59
2023/12/12 08:24:01;;;;;;;6.55;5.43;;;;;;;;;;5017536;28;20065;-59
2023/12/12 08:26:27;;;;;;;7.55;5.57;;;;;;;;;;5017025;28;20104;-60
2023/12/12 08:28:52;;;;;;;8.70;6.10;;;;;;;;;;5014823;28;20041;-60
2023/12/12 08:31:17;;;;;;;7.85;6.00;;;;;;;;;;5014367;28;20041;-60
2023/12/12 08:33:43;;;;;;;7.43;5.60;;;;;;;;;;5013110;28;20064;-60
2023/12/12 08:36:10;;;;;;;7.88;6.00;;;;;;;;;;5015273;28;20036;-59
2023/12/12 08:38:36;;;;;;;6.97;5.43;;;;;;;;;;4996061;28;20040;-58
2023/12/12 08:41:02;;;;;;;8.35;6.13;;;;;;;;;;5012934;28;20410;-59
2023/12/12 08:43:27;;;;;;;6.95;5.22;;;;;;;;;;5016062;28;20521;-59
2023/12/12 08:45:54;;;;;;;6.68;5.32;;;;;;;;;;5016341;28;20045;-59
2023/12/12 08:48:21;;;;;;;7.93;5.72;;;;;;;;;;5017536;28;20065;-59
2023/12/12 08:50:48;;;;;;;9.02;6.03;;;;;;;;;;5016158;28;20102;-60
2023/12/12 08:53:15;;;;;;;7.18;5.47;;;;;;;;;;5016810;28;20041;-60
2023/12/12 08:55:41;;;;;;;7.10;5.53;;;;;;;;;;5018064;28;20071;-60
2023/12/12 08:58:07;;;;;;;6.88;5.25;;;;;;;;;;5017438;28;20589;-62
2023/12/12 09:00:32;;;;;;;8.77;5.80;;;;;;;;;;5017145;28;20487;-62
2023/12/12 09:02:58;;;;;;;7.03;5.20;;;;;;;;;;5019556;28;20088;-60
2023/12/12 09:05:23;;;;;;;8.02;5.53;;;;;;;;;;5022210;28;20454;-61
2023/12/12 09:07:48;;;;;;;6.35;5.45;;;;;;;;;;4997855;28;20116;-60
2023/12/12 09:10:14;;;;;;;6.82;5.35;;;;;;;;;;5023711;28;20045;-60
2023/12/12 09:12:39;;;;;;;7.47;5.25;;;;;;;;;;5021032;28;20044;-60
2023/12/12 09:15:05;;;;;;;7.13;5.10;;;;;;;;;;5020256;28;20041;-59
2023/12/12 09:17:31;;;;;;;7.97;5.15;;;;;;;;;;5020427;28;20046;-60
2023/12/12 09:19:56;;;;;;;6.80;5.55;;;;;;;;;;5020760;28;20523;-59
2023/12/12 09:22:21;;;;;;;7.20;5.10;;;;;;;;;;5019932;28;20037;-60
2023/12/12 09:24:47;;;;;;;6.45;5.28;;;;;;;;;;5002049;28;20128;-60
2023/12/12 09:27:13;;;;;;;6.18;4.72;;;;;;;;;;5019186;28;20037;-61
2023/12/12 09:29:39;;;;;;;6.90;4.95;;;;;;;;;;5018322;28;20089;-60
2023/12/12 09:32:04;;;;;;;6.25;4.97;;;;;;;;;;5001102;28;20061;-59
2023/12/12 09:34:29;;;;;;;6.28;5.13;;;;;;;;;;5019086;28;20076;-60
2023/12/12 09:36:55;;;;;;;6.75;4.55;;;;;;;;;;5019231;28;20052;-59
2023/12/12 09:39:20;;;;;;;6.95;5.00;;;;;;;;;;5018236;28;20148;-60
2023/12/12 09:41:46;;;;;;;6.18;4.93;;;;;;;;;;5019129;28;20099;-60
2023/12/12 09:44:12;;;;;;;5.93;4.85;;;;;;;;;;5019653;28;20111;-60
2023/12/12 09:46:38;;;;;;;6.80;5.00;;;;;;;;;;5018837;28;20586;-60
2023/12/12 09:49:06;;;;;;;6.82;4.78;;;;;;;;;;5000979;28;20037;-60
2023/12/12 09:51:31;;;;;;;7.03;4.68;;;;;;;;;;5018579;28;20060;-59
2023/12/12 09:53:56;;;;;;;5.93;4.55;;;;;;;;;;4978731;28;20033;-59
2023/12/12 09:56:24;;;;;;;6.53;4.80;;;;;;;;;;5019023;28;20040;-59
2023/12/12 09:58:50;;;;;;;6.00;4.55;;;;;;;;;;5019126;28;20372;-59
2023/12/12 10:01:15;;;;;;;6.63;4.57;;;;;;;;;;5018897;28;20143;-60
2023/12/12 10:03:40;;;;;;;6.35;4.40;;;;;;;;;;5018569;28;20040;-60
2023/12/12 10:06:08;;;;;;;5.85;4.15;;;;;;;;;;5000229;28;20052;-60
2023/12/12 10:08:33;;;;;;;5.90;4.55;;;;;;;;;;5018107;28;20106;-60
2023/12/12 10:10:59;;;;;;;6.43;4.50;;;;;;;;;;5017587;28;20049;-60
2023/12/12 10:13:25;;;;;;;5.88;4.40;;;;;;;;;;4995289;28;20041;-60
2023/12/12 10:15:51;;;;;;;6.18;4.40;;;;;;;;;;5017462;28;20550;-61
2023/12/12 10:18:16;;;;;;;5.97;4.35;;;;;;;;;;4999531;28;20037;-61
2023/12/12 10:20:42;;;;;;;5.22;4.15;;;;;;;;;;5018471;28;20438;-60
2023/12/12 10:23:07;;;;;;;6.03;4.25;;;;;;;;;;4999550;28;22332;-61
2023/12/12 10:25:33;;;;;;;5.32;4.15;;;;;;;;;;5018003;28;20033;-59
2023/12/12 10:27:58;;;;;;;5.63;4.20;;;;;;;;;;4994766;28;20064;-59
2023/12/12 10:30:23;;;;;;;6.25;4.30;;;;;;;;;;5018967;28;20628;-59
2023/12/12 10:32:51;;;;;;;6.05;4.65;;;;;;;;;;5018205;28;20109;-60
2023/12/12 10:35:16;;;;;;;6.00;4.15;;;;;;;;;;4995148;28;20034;-59
2023/12/12 10:37:41;;;;;;;6.63;3.97;;;;;;;;;;5018550;28;20037;-59
2023/12/12 10:40:21;;;;;;;5.25;3.88;;;;;;;;;;4996525;28;20053;-61
2023/12/12 10:42:47;;;;;;;8.35;4.45;;;;;;;;;;5018081;28;20503;-60
2023/12/12 10:45:13;;;;;;;5.15;4.05;;;;;;;;;;5018123;28;20030;-60
2023/12/12 10:47:41;;;;;;;5.22;3.85;;;;;;;;;;5019128;28;20499;-60
2023/12/12 10:50:09;;;;;;;5.38;4.10;;;;;;;;;;5017827;28;20212;-60
2023/12/12 10:52:35;;;;;;;5.28;3.50;;;;;;;;;;5000498;28;20104;-60
2023/12/12 10:55:00;;;;;;;6.07;3.97;;;;;;;;;;5016709;28;20598;-60
2023/12/12 10:57:26;;;;;;;7.38;4.07;;;;;;;;;;4994013;28;20037;-60
2023/12/12 10:59:51;;;;;;;5.30;4.22;;;;;;;;;;4983926;28;20122;-60
2023/12/12 11:02:17;;;;;;;5.15;3.83;;;;;;;;;;4984666;28;20049;-59
2023/12/12 11:04:42;;;;;;;5.28;4.05;;;;;;;;;;5017254;28;20063;-60
2023/12/12 11:07:07;;;;;;;5.03;4.05;;;;;;;;;;4999171;28;20423;-59
2023/12/12 11:09:33;;;;;;;4.65;3.65;;;;;;;;;;5018236;28;20128;-60
2023/12/12 11:11:58;;;;;;;4.82;3.70;;;;;;;;;;5018744;28;20033;-59
2023/12/12 11:14:23;;;;;;;6.28;3.97;;;;;;;;;;5016461;28;20041;-60
2023/12/12 11:16:48;;;;;;;6.82;3.92;;;;;;;;;;5017270;28;20033;-61
2023/12/12 11:19:14;;;;;;;5.32;3.75;;;;;;;;;;5017582;28;20044;-60
2023/12/12 11:21:46;;;;;;;5.95;3.95;;;;;;;;;;5017981;28;20041;-60
2023/12/12 11:24:12;;;;;;;6.30;3.78;;;;;;;;;;5016231;28;20045;-61
2023/12/12 11:26:37;;;;;;;5.43;3.55;;;;;;;;;;5018209;28;20041;-61
2023/12/12 11:29:06;;;;;;;5.30;3.80;;;;;;;;;;4979490;28;20112;-61
2023/12/12 11:31:34;;;;;;;5.50;3.78;;;;;;;;;;5015909;28;20037;-60
2023/12/12 11:34:00;;;;;;;4.15;3.15;;;;;;;;;;4999295;28;20037;-60
2023/12/12 11:36:25;;;;;;;4.53;3.45;;;;;;;;;;5017674;28;20092;-60
2023/12/12 12:06:12;;;;;;;5.68;3.30;;;;;;;;;;5039429;22;20053;-58
2023/12/12 12:08:37;;;;;;;4.55;3.15;;;;;;;;;;5033387;28;20041;-58
2023/12/12 12:11:02;;;;;;;4.50;3.30;;;;;;;;;;5033560;23;20057;-59
2023/12/12 12:13:38;;;;;;;4.25;2.88;;;;;;;;;;5005951;28;20033;-58
2023/12/12 12:16:04;;;;;;;4.60;3.00;;;;;;;;;;5006174;28;20459;-59
2023/12/12 12:18:49;;;;;;;4.20;2.83;;;;;;;;;;4971008;28;20030;-58
2023/12/12 12:30:09;;;;;;;3.70;3.00;;;;;;;;;;2043451;22;20041;-60
2023/12/12 12:44:41;;;;;;;4.10;2.78;;;;;;;;;;5155158;23;20079;-72
2023/12/12 12:52:55;;;;;;;4.60;2.72;;;;;;;;;;5016091;22;20904;-59
2023/12/12 12:55:43;;;;;;;3.53;2.47;;;;;;;;;;4993057;23;20447;-59
2023/12/12 12:58:21;;;;;;;4.00;2.67;;;;;;;;;;5052657;23;20097;-74
2023/12/12 13:17:43;;;;;;;3.15;2.35;;;;;;;;;;1540186;22;20153;-57
2023/12/12 13:38:37;;;;;;;3.20;2.17;;;;;;;;;;5092604;22;20265;-57
2023/12/12 13:41:13;;;;;;;3.80;2.42;;;;;;;;;;5105580;22;20050;-58
2023/12/12 13:58:35;;;;;;;3.83;2.50;;;;;;;;;;4266502;26;20103;-59
2023/12/12 14:09:42;;;;;;;4.70;2.63;;;;;;;;;;5069210;22;20051;-59
2023/12/12 14:24:53;;;;;;;6.50;2.40;;;;;;;;;;5072424;22;20052;-79
2023/12/12 14:32:57;;;;;;;3.20;2.08;;;;;;;;;;3983592;22;20488;-56
2023/12/12 14:35:23;;;;;;;3.70;2.13;;;;;;;;;;5040041;28;20064;-56
2023/12/12 14:49:58;;;;;;;5.90;2.50;;;;;;;;;;5019617;28;20041;-58
2023/12/12 14:52:23;;;;;;;6.78;2.65;;;;;;;;;;5041925;22;20132;-57
2023/12/12 14:54:49;;;;;;;5.50;2.63;;;;;;;;;;5030439;28;20033;-56
2023/12/12 14:57:39;;;;;;;4.97;2.10;;;;;;;;;;5045024;28;20116;-57
2023/12/12 15:00:08;;;;;;;4.63;2.30;;;;;;;;;;5056473;22;20084;-62
2023/12/12 15:05:10;;;;;;;4.43;2.47;;;;;;;;;;1399041;22;20452;-57
2023/12/12 15:10:38;;;;;;;4.18;2.35;;;;;;;;;;5056666;22;20048;-57
2023/12/12 15:13:14;;;;;;;3.95;2.10;;;;;;;;;;5026419;28;20029;-57
2023/12/12 18:33:53;;;;;;;4.60;3.00;;;;;;;;;;4987345;28;20360;-58
2023/12/12 18:36:52;;;;;;;6.75;3.30;;;;;;;;;;4957649;28;20038;-57
2023/12/12 18:39:56;;;;;;;6.10;3.10;;;;;;;;;;4964644;28;20147;-56
2023/12/12 18:42:58;;;;;;;5.28;2.90;;;;;;;;;;4964684;28;20309;-57
2023/12/12 18:46:02;;;;;;;5.82;3.00;;;;;;;;;;4965355;28;20049;-58
2023/12/12 18:49:33;;;;;;;6.28;3.40;;;;;;;;;;4910966;28;20398;-59
2023/12/12 19:01:46;;;;;;;5.90;3.40;;;;;;;;;;4939662;28;20053;-59
2023/12/12 19:07:43;;;;;;;6.90;3.47;;;;;;;;;;4939739;28;20072;-61
2023/12/12 19:10:49;;;;;;;5.10;3.33;;;;;;;;;;4880800;28;20058;-58
2023/12/12 19:13:59;;;;;;;6.93;3.17;;;;;;;;;;4875465;29;20096;-57
2023/12/12 19:17:05;;;;;;;4.25;2.75;;;;;;;;;;4819324;29;20132;-58
2023/12/12 19:38:14;;;;;;;4.13;2.97;;;;;;;;;;4986447;23;20135;-78
2023/12/12 19:40:41;;;;;;;4.47;3.00;;;;;;;;;;5026783;28;20060;-79
2023/12/12 19:43:07;;;;;;;5.10;2.95;;;;;;;;;;5016383;28;20091;-79
2023/12/12 19:45:34;;;;;;;6.28;3.78;;;;;;;;;;5006852;28;20042;-81
2023/12/12 19:48:00;;;;;;;5.47;2.83;;;;;;;;;;5014832;28;20030;-78
2023/12/12 19:50:26;;;;;;;5.82;3.17;;;;;;;;;;5012243;28;20049;-78
2023/12/12 19:52:51;;;;;;;4.28;3.00;;;;;;;;;;5013309;28;20183;-77
2023/12/12 19:55:17;;;;;;;5.97;3.33;;;;;;;;;;4999733;28;20044;-78
2023/12/12 19:57:43;;;;;;;4.95;2.83;;;;;;;;;;5032865;28;20048;-76
2023/12/12 20:00:09;;;;;;;5.55;3.03;;;;;;;;;;5007569;28;20033;-77
2023/12/12 20:02:34;;;;;;;6.03;3.53;;;;;;;;;;5029283;23;20515;-59
2023/12/12 20:04:59;;;;;;;4.57;2.83;;;;;;;;;;5036124;28;20088;-59
2023/12/12 20:07:25;;;;;;;4.93;3.05;;;;;;;;;;5034690;28;20103;-58
2023/12/12 20:09:50;;;;;;;6.72;3.45;;;;;;;;;;5036162;28;20033;-57
2023/12/12 20:12:15;;;;;;;4.45;2.97;;;;;;;;;;5042668;28;20049;-59
2023/12/12 20:14:41;;;;;;;4.72;3.13;;;;;;;;;;5039750;28;20245;-57
2023/12/12 20:17:06;;;;;;;5.45;3.10;;;;;;;;;;5048915;28;20660;-58
2023/12/12 20:19:32;;;;;;;4.97;3.15;;;;;;;;;;5038466;28;20458;-57
2023/12/12 20:21:57;;;;;;;4.80;3.03;;;;;;;;;;5023349;28;20490;-58
2023/12/12 20:24:23;;;;;;;4.70;3.25;;;;;;;;;;5042065;28;20033;-58
2023/12/12 20:26:48;;;;;;;4.35;3.13;;;;;;;;;;5049585;28;20124;-57
2023/12/12 20:29:13;;;;;;;4.97;3.40;;;;;;;;;;5037291;28;20080;-57
2023/12/12 20:31:39;;;;;;;4.43;3.08;;;;;;;;;;5044621;28;20067;-57
2023/12/12 20:34:04;;;;;;;6.00;3.42;;;;;;;;;;5044204;28;20036;-57
2023/12/12 20:36:29;;;;;;;4.40;3.15;;;;;;;;;;5040261;28;20037;-57
2023/12/12 20:38:55;;;;;;;4.70;3.28;;;;;;;;;;5046573;28;20037;-58
2023/12/12 20:41:20;;;;;;;5.50;3.50;;;;;;;;;;5045886;28;20049;-58
2023/12/12 20:43:46;;;;;;;5.60;3.17;;;;;;;;;;5033987;28;20127;-58
2023/12/12 20:46:12;;;;;;;5.38;3.47;;;;;;;;;;5042656;28;20021;-58
2023/12/12 20:48:37;;;;;;;5.07;3.00;;;;;;;;;;5045680;28;20032;-58
2023/12/12 20:51:03;;;;;;;4.45;3.10;;;;;;;;;;5020854;28;20045;-57
2023/12/12 20:53:29;;;;;;;4.88;3.45;;;;;;;;;;5044594;28;20426;-58
2023/12/12 20:55:56;;;;;;;5.55;3.47;;;;;;;;;;5051562;28;20041;-57